Time;durP1;ratioP1;P1;durP2;ratioP2;P2;SDS_P1;SDS_P2;PMS_P1;PMS_P2;Temp;Humidity;BMP_temperature;BMP_pressure;BME280_temperature;BME280_humidity;BME280_pressure;Samples;Min_cycle;Max_cycle;Signal;HPM_P1;HPM_P2
2021/07/08 00:00:57;;;;;;;3.40;1.50;;;23.10;99.90;;;;;;4975339;28;20453;-77
2021/07/08 00:03:24;;;;;;;2.57;1.93;;;23.10;99.90;;;;;;4975986;28;20926;-77
2021/07/08 00:05:53;;;;;;;2.30;1.97;;;23.00;99.90;;;;;;4975130;28;20454;-77
2021/07/08 00:08:20;;;;;;;2.47;1.40;;;23.00;99.90;;;;;;4974935;28;20487;-76
2021/07/08 00:10:51;;;;;;;1.70;1.50;;;23.00;99.90;;;;;;4974519;28;20442;-77
2021/07/08 00:13:19;;;;;;;1.63;1.53;;;23.00;99.90;;;;;;4975078;28;20454;-76
2021/07/08 00:15:47;;;;;;;2.37;1.30;;;22.90;99.90;;;;;;4975245;28;20460;-77
2021/07/08 00:18:14;;;;;;;2.00;1.40;;;22.90;99.90;;;;;;4974813;28;20441;-76
2021/07/08 00:20:45;;;;;;;2.33;1.73;;;22.90;99.90;;;;;;4974823;28;20445;-77
2021/07/08 00:23:12;;;;;;;1.70;1.60;;;22.90;99.90;;;;;;4974620;28;20454;-77
2021/07/08 00:25:39;;;;;;;2.30;1.90;;;22.90;99.90;;;;;;4974506;28;20449;-76
2021/07/08 00:28:07;;;;;;;1.60;1.50;;;22.80;99.90;;;;;;4974253;28;20493;-76
2021/07/08 00:30:34;;;;;;;1.57;1.40;;;22.80;99.90;;;;;;4974149;28;20544;-77
2021/07/08 00:33:02;;;;;;;2.70;1.90;;;22.80;99.90;;;;;;4974668;28;20452;-76
2021/07/08 00:35:29;;;;;;;3.40;1.70;;;22.80;99.90;;;;;;4974527;28;20454;-77
2021/07/08 00:37:56;;;;;;;1.80;1.63;;;22.80;99.90;;;;;;4975300;28;20464;-76
2021/07/08 00:40:22;;;;;;;2.57;1.50;;;22.70;99.90;;;;;;4975209;28;20445;-77
2021/07/08 00:42:49;;;;;;;1.60;1.37;;;22.70;99.90;;;;;;4975116;28;20457;-76
2021/07/08 00:45:19;;;;;;;4.53;2.00;;;22.70;99.90;;;;;;4975169;28;20775;-76
2021/07/08 00:47:46;;;;;;;1.87;1.77;;;22.70;99.90;;;;;;4975429;28;20262;-77
2021/07/08 00:50:17;;;;;;;3.13;1.97;;;22.60;99.90;;;;;;4975302;28;20445;-77
2021/07/08 00:52:44;;;;;;;1.90;1.63;;;22.70;99.90;;;;;;4975440;28;20457;-77
2021/07/08 00:55:12;;;;;;;2.00;1.60;;;22.60;99.90;;;;;;4974640;28;20462;-77
2021/07/08 00:57:41;;;;;;;2.23;1.67;;;22.60;99.90;;;;;;4974773;28;20504;-76
2021/07/08 01:00:09;;;;;;;2.30;1.77;;;22.60;99.90;;;;;;4974906;28;20450;-77
2021/07/08 01:02:36;;;;;;;1.77;1.67;;;22.60;99.90;;;;;;4975171;28;20449;-76
2021/07/08 01:05:04;;;;;;;1.87;1.70;;;22.60;99.90;;;;;;4975145;28;20461;-76
2021/07/08 01:07:32;;;;;;;2.78;1.60;;;22.60;99.90;;;;;;4974870;28;20792;-76
2021/07/08 01:09:59;;;;;;;1.98;1.38;;;22.50;99.90;;;;;;4974728;28;20202;-76
2021/07/08 01:12:25;;;;;;;1.60;1.50;;;22.50;99.90;;;;;;4973812;28;20209;-77
2021/07/08 01:14:52;;;;;;;2.53;1.80;;;22.50;99.90;;;;;;4956773;28;20211;-76
2021/07/08 01:17:21;;;;;;;2.00;1.90;;;22.50;99.90;;;;;;4955957;28;20446;-76
2021/07/08 01:19:49;;;;;;;1.92;1.73;;;22.40;99.90;;;;;;4955560;29;20238;-76
2021/07/08 01:22:17;;;;;;;1.77;1.37;;;22.40;99.90;;;;;;4967118;28;20698;-77
2021/07/08 01:24:43;;;;;;;2.00;1.80;;;22.30;99.90;;;;;;4973897;28;20457;-77
2021/07/08 01:27:13;;;;;;;1.95;1.85;;;22.40;99.90;;;;;;4973675;28;20686;-77
2021/07/08 01:29:40;;;;;;;1.77;1.50;;;22.30;99.90;;;;;;4974767;28;20198;-76
2021/07/08 01:32:07;;;;;;;2.70;1.40;;;22.30;99.90;;;;;;4974220;28;20201;-77
2021/07/08 01:34:34;;;;;;;1.70;1.60;;;22.30;99.90;;;;;;4974692;28;20213;-76
2021/07/08 01:37:00;;;;;;;1.90;1.75;;;22.20;99.90;;;;;;4973192;28;20201;-77
2021/07/08 01:39:28;;;;;;;1.95;1.85;;;22.30;99.90;;;;;;4973633;28;20242;-76
2021/07/08 01:41:55;;;;;;;2.10;1.90;;;22.20;99.90;;;;;;4974330;28;20550;-76
2021/07/08 01:44:22;;;;;;;2.33;2.10;;;22.20;99.90;;;;;;4974438;28;20201;-76
2021/07/08 01:46:49;;;;;;;2.85;2.30;;;22.20;99.90;;;;;;4974084;28;20294;-77
2021/07/08 01:49:16;;;;;;;5.78;2.05;;;22.20;99.90;;;;;;4973917;28;20206;-76
2021/07/08 01:51:45;;;;;;;3.15;2.28;;;22.10;99.90;;;;;;4974100;28;20206;-76
2021/07/08 01:54:12;;;;;;;1.92;1.65;;;22.10;99.90;;;;;;4974382;28;20216;-76
2021/07/08 01:56:40;;;;;;;3.55;1.98;;;22.10;99.90;;;;;;4973762;28;20199;-76
2021/07/08 01:59:07;;;;;;;1.77;1.67;;;22.10;99.90;;;;;;4974103;28;20257;-77
2021/07/08 02:01:34;;;;;;;1.70;1.40;;;22.10;99.90;;;;;;4973578;28;20212;-77
2021/07/08 02:04:00;;;;;;;2.67;1.70;;;22.00;99.90;;;;;;4971887;28;20473;-77
2021/07/08 02:06:27;;;;;;;2.00;1.80;;;22.00;99.90;;;;;;4972758;28;20559;-77
2021/07/08 02:08:54;;;;;;;1.60;1.50;;;22.00;99.90;;;;;;4972604;28;20241;-77
2021/07/08 02:11:21;;;;;;;2.42;2.22;;;22.00;99.90;;;;;;4972882;28;20210;-77
2021/07/08 02:13:49;;;;;;;2.40;2.17;;;22.00;99.90;;;;;;4972467;28;20213;-76
2021/07/08 02:16:16;;;;;;;2.08;1.60;;;21.90;99.90;;;;;;4972715;28;20201;-77
2021/07/08 02:18:44;;;;;;;1.58;1.48;;;21.90;99.90;;;;;;4972839;28;20206;-76
2021/07/08 02:21:12;;;;;;;2.53;1.85;;;21.90;99.90;;;;;;4972496;28;20237;-76
2021/07/08 02:23:39;;;;;;;2.88;1.83;;;21.90;99.90;;;;;;4972879;28;20216;-76
2021/07/08 02:26:06;;;;;;;1.63;1.48;;;21.90;99.90;;;;;;4972376;28;20198;-77
2021/07/08 02:28:33;;;;;;;2.00;1.80;;;21.90;99.90;;;;;;4972570;28;20233;-76
2021/07/08 02:31:01;;;;;;;1.80;1.70;;;21.80;99.90;;;;;;4972364;28;20662;-76
2021/07/08 02:33:29;;;;;;;2.20;2.00;;;21.80;99.90;;;;;;4972394;28;20206;-76
2021/07/08 02:35:56;;;;;;;2.08;1.75;;;21.80;99.90;;;;;;4973183;28;20308;-76
2021/07/08 02:38:23;;;;;;;2.00;1.80;;;21.70;99.90;;;;;;4973793;28;20576;-77
2021/07/08 02:40:50;;;;;;;2.28;2.08;;;21.80;99.90;;;;;;4973583;28;20210;-76
2021/07/08 02:43:17;;;;;;;2.05;1.88;;;21.70;99.90;;;;;;4973597;28;20213;-77
2021/07/08 02:45:45;;;;;;;1.63;1.52;;;21.70;99.90;;;;;;4973813;28;20202;-76
2021/07/08 02:48:16;;;;;;;1.50;1.40;;;21.70;99.90;;;;;;4973684;28;20238;-76
2021/07/08 02:50:46;;;;;;;3.95;2.35;;;21.70;99.90;;;;;;4973822;28;20220;-76
2021/07/08 02:53:14;;;;;;;2.25;1.80;;;21.70;99.90;;;;;;4973879;28;20213;-76
2021/07/08 02:55:42;;;;;;;3.05;2.15;;;21.60;99.90;;;;;;4973062;28;20205;-76
2021/07/08 02:58:09;;;;;;;1.70;1.40;;;21.60;99.90;;;;;;4972538;28;20194;-76
2021/07/08 03:00:36;;;;;;;1.90;1.80;;;21.60;99.90;;;;;;4973675;28;20217;-76
2021/07/08 03:03:04;;;;;;;2.38;2.17;;;21.60;99.90;;;;;;4973849;28;20543;-77
2021/07/08 03:05:33;;;;;;;1.52;1.42;;;21.60;99.90;;;;;;4972963;28;20217;-76
2021/07/08 03:08:00;;;;;;;2.05;1.83;;;21.50;99.90;;;;;;4972338;28;20222;-76
2021/07/08 03:10:29;;;;;;;3.13;1.60;;;21.10;99.90;;;;;;4972171;28;20656;-75
2021/07/08 03:12:58;;;;;;;2.53;2.17;;;21.50;99.90;;;;;;4972410;28;20206;-75
2021/07/08 03:15:25;;;;;;;2.03;1.92;;;21.50;99.90;;;;;;4972190;28;20639;-75
2021/07/08 03:17:52;;;;;;;2.08;1.65;;;21.50;99.90;;;;;;4972445;28;20221;-75
2021/07/08 03:20:21;;;;;;;2.92;1.95;;;21.50;99.90;;;;;;4972367;28;20677;-75
2021/07/08 03:22:51;;;;;;;2.47;1.70;;;21.40;99.90;;;;;;4972957;28;20218;-75
2021/07/08 03:25:19;;;;;;;2.05;1.85;;;21.40;99.90;;;;;;4972035;28;20202;-76
2021/07/08 03:27:46;;;;;;;1.83;1.63;;;21.40;99.90;;;;;;4971740;28;20234;-75
2021/07/08 03:30:15;;;;;;;2.30;1.80;;;21.40;99.90;;;;;;4972301;28;20225;-75
2021/07/08 03:32:42;;;;;;;1.92;1.70;;;21.40;99.90;;;;;;4972362;28;20516;-75
2021/07/08 03:35:10;;;;;;;2.33;2.10;;;21.30;99.90;;;;;;4973217;28;20658;-75
2021/07/08 03:37:37;;;;;;;1.95;1.52;;;21.30;99.90;;;;;;4976604;28;20225;-75
2021/07/08 03:40:07;;;;;;;3.58;2.65;;;21.30;99.90;;;;;;4976277;28;20210;-75
2021/07/08 03:42:36;;;;;;;1.98;1.88;;;21.30;99.90;;;;;;4959871;28;20279;-75
2021/07/08 03:45:03;;;;;;;1.95;1.70;;;21.30;99.90;;;;;;4976811;28;20206;-75
2021/07/08 03:47:30;;;;;;;2.08;1.88;;;21.20;99.90;;;;;;4976414;28;20253;-75
2021/07/08 03:49:56;;;;;;;2.28;1.70;;;21.30;99.90;;;;;;4976777;28;20206;-75
2021/07/08 03:52:23;;;;;;;3.00;2.50;;;21.20;99.90;;;;;;4976573;28;20222;-75
2021/07/08 03:54:50;;;;;;;2.63;1.40;;;21.20;99.90;;;;;;4975486;28;20543;-76
2021/07/08 03:57:18;;;;;;;2.63;2.22;;;21.20;99.90;;;;;;4976536;28;20202;-76
2021/07/08 03:59:44;;;;;;;2.00;1.58;;;21.10;99.90;;;;;;4976557;28;20213;-76
2021/07/08 04:02:11;;;;;;;1.92;1.58;;;21.10;99.90;;;;;;4976271;28;20201;-75
2021/07/08 04:04:39;;;;;;;2.50;1.90;;;21.10;99.90;;;;;;4972356;28;20206;-75
2021/07/08 04:07:06;;;;;;;3.08;1.90;;;21.10;99.90;;;;;;4976026;28;20206;-75
2021/07/08 04:09:33;;;;;;;1.80;1.70;;;21.10;99.90;;;;;;4975933;28;20234;-76
2021/07/08 04:12:00;;;;;;;1.98;1.77;;;21.10;99.90;;;;;;4976304;28;20219;-76
2021/07/08 04:14:28;;;;;;;1.50;1.40;;;21.10;99.90;;;;;;4975796;28;20206;-76
2021/07/08 04:16:55;;;;;;;2.60;2.33;;;21.00;99.90;;;;;;4976155;28;20662;-75
2021/07/08 04:19:22;;;;;;;1.90;1.80;;;21.20;99.90;;;;;;4976076;28;20213;-76
2021/07/08 04:21:49;;;;;;;1.75;1.60;;;21.00;99.90;;;;;;4975844;28;20206;-76
2021/07/08 04:24:15;;;;;;;1.80;1.45;;;21.00;99.90;;;;;;4975735;28;20202;-76
2021/07/08 04:26:43;;;;;;;1.77;1.65;;;20.90;99.90;;;;;;4975600;28;20230;-76
2021/07/08 04:29:09;;;;;;;2.47;2.15;;;20.90;99.90;;;;;;4975798;28;20221;-76
2021/07/08 04:31:37;;;;;;;1.73;1.63;;;20.90;99.90;;;;;;4975924;28;20665;-76
2021/07/08 04:34:04;;;;;;;2.40;1.90;;;20.90;99.90;;;;;;4975282;28;20199;-76
2021/07/08 04:36:32;;;;;;;2.90;1.80;;;20.80;99.90;;;;;;4975586;28;20554;-76
2021/07/08 04:38:58;;;;;;;2.00;1.80;;;20.80;99.90;;;;;;4975414;28;20210;-76
2021/07/08 04:41:25;;;;;;;1.90;1.70;;;20.80;99.90;;;;;;4976016;28;20213;-76
2021/07/08 04:43:52;;;;;;;1.60;1.50;;;20.80;99.90;;;;;;4975677;28;20209;-79
2021/07/08 04:46:18;;;;;;;2.80;2.10;;;20.90;99.90;;;;;;4975357;28;20206;-78
2021/07/08 04:48:47;;;;;;;3.10;1.60;;;20.90;99.90;;;;;;4974527;28;20214;-78
2021/07/08 04:51:13;;;;;;;1.80;1.67;;;20.90;99.90;;;;;;4975010;28;20545;-77
2021/07/08 04:53:40;;;;;;;2.03;1.70;;;20.90;99.90;;;;;;4975572;28;20210;-77
2021/07/08 04:56:07;;;;;;;2.35;1.50;;;20.80;99.90;;;;;;4975452;28;20210;-77
2021/07/08 04:58:33;;;;;;;4.20;2.50;;;20.90;99.90;;;;;;4975555;28;20275;-77
2021/07/08 05:01:00;;;;;;;1.80;1.70;;;20.90;99.90;;;;;;4975246;28;20248;-78
2021/07/08 05:03:27;;;;;;;2.30;2.10;;;20.90;99.90;;;;;;4975209;28;20198;-77
2021/07/08 05:05:55;;;;;;;2.38;1.88;;;20.90;99.90;;;;;;4974537;28;20282;-77
2021/07/08 05:08:21;;;;;;;2.28;2.10;;;20.80;99.90;;;;;;4974182;28;20256;-77
2021/07/08 05:10:48;;;;;;;1.77;1.55;;;20.80;99.90;;;;;;4974223;28;20217;-77
2021/07/08 05:13:15;;;;;;;1.70;1.60;;;20.80;99.90;;;;;;4974003;28;20207;-77
2021/07/08 05:15:41;;;;;;;1.95;1.80;;;20.80;99.90;;;;;;4974087;28;20210;-76
2021/07/08 05:18:08;;;;;;;2.58;1.70;;;20.80;99.90;;;;;;4973769;28;20210;-76
2021/07/08 05:20:37;;;;;;;3.13;1.92;;;20.80;99.90;;;;;;4973957;28;20206;-76
2021/07/08 05:23:13;;;;;;;2.17;1.98;;;20.80;99.90;;;;;;4973522;28;20287;-77
2021/07/08 05:25:39;;;;;;;1.98;1.52;;;20.80;99.90;;;;;;4973745;28;20295;-77
2021/07/08 05:28:06;;;;;;;2.45;2.10;;;20.80;99.90;;;;;;4973651;28;20237;-76
2021/07/08 05:30:33;;;;;;;2.85;1.70;;;20.80;99.90;;;;;;4973543;28;20221;-77
2021/07/08 05:33:00;;;;;;;1.92;1.73;;;20.80;99.90;;;;;;4973586;28;20210;-78
2021/07/08 05:35:26;;;;;;;2.00;1.75;;;20.80;99.90;;;;;;4973840;28;20214;-77
2021/07/08 05:37:53;;;;;;;1.90;1.60;;;20.80;99.90;;;;;;4973678;28;20536;-76
2021/07/08 05:40:21;;;;;;;3.15;2.35;;;20.70;99.90;;;;;;4974795;28;20244;-76
2021/07/08 05:42:48;;;;;;;3.00;2.25;;;20.70;99.90;;;;;;4974534;28;20229;-77
2021/07/08 05:45:15;;;;;;;2.50;2.30;;;20.70;99.90;;;;;;4973831;28;20208;-77
2021/07/08 05:47:42;;;;;;;2.13;1.92;;;20.70;99.90;;;;;;4974569;28;20366;-77
2021/07/08 05:50:10;;;;;;;2.35;2.15;;;20.70;99.90;;;;;;4974207;28;20254;-77
2021/07/08 05:52:37;;;;;;;1.95;1.85;;;20.70;99.90;;;;;;4974423;28;20222;-76
2021/07/08 05:55:04;;;;;;;1.60;1.50;;;20.70;99.90;;;;;;4973579;28;20206;-76
2021/07/08 05:57:32;;;;;;;2.25;1.75;;;20.70;99.90;;;;;;4973902;28;20213;-77
2021/07/08 05:59:59;;;;;;;2.75;2.30;;;20.70;99.90;;;;;;4973754;28;20521;-77
2021/07/08 06:02:26;;;;;;;2.78;2.20;;;20.70;99.90;;;;;;4973771;28;20210;-77
2021/07/08 06:04:53;;;;;;;3.45;2.13;;;20.70;99.90;;;;;;4971236;28;20210;-77
2021/07/08 06:07:19;;;;;;;2.70;2.00;;;20.70;99.90;;;;;;4972643;28;20239;-76
2021/07/08 06:09:46;;;;;;;2.47;1.88;;;20.70;99.90;;;;;;4972725;28;20226;-76
2021/07/08 06:12:13;;;;;;;2.17;1.98;;;20.70;99.90;;;;;;4972837;28;20221;-76
2021/07/08 06:14:41;;;;;;;2.58;1.95;;;20.60;99.90;;;;;;4973062;28;20198;-76
2021/07/08 06:17:08;;;;;;;2.78;2.38;;;20.70;99.90;;;;;;4973245;28;20221;-76
2021/07/08 06:19:34;;;;;;;1.80;1.70;;;20.70;99.90;;;;;;4972861;28;20217;-76
2021/07/08 06:22:01;;;;;;;2.83;1.95;;;20.70;99.90;;;;;;4971416;28;20221;-76
2021/07/08 06:24:28;;;;;;;2.90;2.45;;;20.60;99.90;;;;;;4964397;28;20551;-76
2021/07/08 06:26:54;;;;;;;4.25;2.83;;;20.70;99.90;;;;;;4953359;29;20480;-76
2021/07/08 06:29:21;;;;;;;2.55;2.35;;;20.60;99.90;;;;;;4953631;29;20237;-76
2021/07/08 06:31:49;;;;;;;3.17;2.50;;;20.60;99.90;;;;;;4972467;28;20198;-76
2021/07/08 06:34:16;;;;;;;7.25;2.05;;;20.70;99.90;;;;;;4972354;28;20705;-76
2021/07/08 06:36:43;;;;;;;2.63;2.30;;;20.60;99.90;;;;;;4972879;28;20214;-77
2021/07/08 06:39:10;;;;;;;2.92;2.55;;;20.70;99.90;;;;;;4973904;28;20209;-77
2021/07/08 06:41:37;;;;;;;4.22;2.55;;;20.70;99.90;;;;;;4973494;28;20202;-78
2021/07/08 06:44:04;;;;;;;3.90;2.50;;;20.70;99.90;;;;;;4974123;28;20210;-76
2021/07/08 06:46:31;;;;;;;2.33;2.05;;;20.70;99.90;;;;;;4974436;28;20229;-76
2021/07/08 06:49:00;;;;;;;2.70;2.50;;;20.80;99.90;;;;;;4973568;28;20281;-77
2021/07/08 06:51:27;;;;;;;2.28;2.08;;;20.80;99.90;;;;;;4973162;28;20229;-77
2021/07/08 06:53:55;;;;;;;2.47;1.90;;;20.80;99.90;;;;;;4973481;28;20206;-76
2021/07/08 06:56:22;;;;;;;2.63;2.42;;;20.90;99.90;;;;;;4974049;28;20321;-75
2021/07/08 06:58:49;;;;;;;2.60;2.40;;;20.90;99.90;;;;;;4973821;28;20205;-75
2021/07/08 07:01:16;;;;;;;1.88;1.60;;;21.00;99.90;;;;;;4972949;28;20230;-75
2021/07/08 07:03:43;;;;;;;2.85;1.85;;;21.00;99.90;;;;;;4973443;28;20222;-76
2021/07/08 07:06:11;;;;;;;3.28;2.42;;;21.10;99.90;;;;;;4972976;28;20610;-75
2021/07/08 07:08:38;;;;;;;2.55;2.00;;;21.20;99.90;;;;;;4972040;28;20209;-75
2021/07/08 07:11:05;;;;;;;2.53;1.92;;;21.30;99.90;;;;;;4973320;28;20205;-75
2021/07/08 07:13:32;;;;;;;2.60;2.35;;;21.40;99.90;;;;;;4976161;28;20207;-76
2021/07/08 07:15:58;;;;;;;3.20;2.08;;;21.80;99.90;;;;;;4975996;28;20202;-75
2021/07/08 07:18:25;;;;;;;2.05;1.90;;;21.50;99.90;;;;;;4975843;28;20206;-75
2021/07/08 07:20:52;;;;;;;2.25;1.98;;;21.60;99.90;;;;;;4975875;28;20277;-75
2021/07/08 07:23:20;;;;;;;2.63;2.30;;;21.80;99.90;;;;;;4975587;28;20213;-75
2021/07/08 07:25:47;;;;;;;2.72;2.10;;;22.20;99.90;;;;;;4975829;28;20579;-75
2021/07/08 07:28:15;;;;;;;1.93;1.83;;;22.10;99.90;;;;;;4975805;28;20647;-75
2021/07/08 07:30:42;;;;;;;2.30;1.87;;;22.30;99.90;;;;;;4974951;28;20962;-73
2021/07/08 07:33:09;;;;;;;2.47;2.27;;;22.50;99.90;;;;;;4975593;28;20472;-75
2021/07/08 07:35:35;;;;;;;3.40;2.27;;;22.60;99.90;;;;;;4975552;28;20469;-76
2021/07/08 07:38:05;;;;;;;2.20;1.80;;;22.80;99.90;;;;;;4967821;28;20453;-76
2021/07/08 07:40:33;;;;;;;4.23;1.80;;;23.00;99.90;;;;;;4976701;28;20528;-75
2021/07/08 07:43:00;;;;;;;2.17;1.97;;;23.20;99.90;;;;;;4976962;28;20539;-83
2021/07/08 07:45:27;;;;;;;2.43;2.23;;;23.20;99.90;;;;;;4976521;28;20930;-78
2021/07/08 07:47:53;;;;;;;2.47;1.67;;;23.50;99.90;;;;;;4976463;28;20441;-74
2021/07/08 07:50:23;;;;;;;2.83;2.03;;;23.60;99.90;;;;;;4976378;28;21005;-74
2021/07/08 07:52:52;;;;;;;1.67;1.57;;;23.80;99.90;;;;;;4976915;28;20445;-76
2021/07/08 07:55:19;;;;;;;2.80;1.97;;;23.90;99.90;;;;;;4976638;28;20468;-75
2021/07/08 07:57:47;;;;;;;4.80;2.13;;;24.00;99.90;;;;;;4976185;28;20918;-76
2021/07/08 08:00:14;;;;;;;2.90;1.80;;;24.10;99.90;;;;;;4975695;28;20452;-75
2021/07/08 08:02:41;;;;;;;2.93;1.77;;;24.20;99.90;;;;;;4976426;28;20848;-76
2021/07/08 08:05:22;;;;;;;1.50;1.37;;;24.30;99.90;;;;;;4970279;28;20473;-76
2021/07/08 08:10:34;;;;;;;2.70;1.80;;;24.50;99.90;;;;;;4963790;28;20964;-75
2021/07/08 08:13:02;;;;;;;1.87;1.53;;;24.60;99.90;;;;;;4976190;28;20449;-76
2021/07/08 08:15:29;;;;;;;2.63;1.60;;;25.20;99.90;;;;;;4977108;28;20449;-76
2021/07/08 08:17:55;;;;;;;1.70;1.37;;;24.70;99.90;;;;;;4975493;28;20446;-76
2021/07/08 08:20:22;;;;;;;2.60;2.40;;;24.80;99.90;;;;;;4967473;28;20536;-76
2021/07/08 08:22:49;;;;;;;2.23;1.90;;;24.90;99.90;;;;;;4974444;28;20449;-76
2021/07/08 08:25:16;;;;;;;2.77;1.63;;;24.90;99.90;;;;;;4974491;28;20919;-76
2021/07/08 08:27:43;;;;;;;1.33;1.23;;;25.00;99.90;;;;;;4974464;28;20481;-75
2021/07/08 08:30:14;;;;;;;3.30;1.70;;;25.00;99.90;;;;;;4973750;28;20481;-76
2021/07/08 08:32:41;;;;;;;2.30;1.40;;;25.10;99.90;;;;;;4974605;28;20782;-76
2021/07/08 08:35:09;;;;;;;1.90;1.30;;;25.10;99.90;;;;;;4974885;28;20453;-75
2021/07/08 08:37:36;;;;;;;1.93;1.27;;;25.20;99.90;;;;;;4974393;28;20453;-75
2021/07/08 08:40:05;;;;;;;2.30;1.40;;;25.30;99.90;;;;;;4974099;28;20441;-76
2021/07/08 08:42:32;;;;;;;3.83;1.60;;;25.40;99.90;;;;;;4973753;28;20464;-76
2021/07/08 08:44:59;;;;;;;3.10;1.50;;;25.40;99.90;;;;;;4974533;28;20834;-75
2021/07/08 08:47:27;;;;;;;2.23;1.70;;;25.40;99.90;;;;;;4974352;28;20461;-75
2021/07/08 08:49:55;;;;;;;4.00;1.77;;;25.40;99.90;;;;;;4975339;28;20481;-76
2021/07/08 08:52:22;;;;;;;2.17;1.40;;;25.50;99.90;;;;;;4974543;28;20911;-75
2021/07/08 08:54:51;;;;;;;2.13;1.40;;;25.50;99.90;;;;;;4974779;28;20847;-75
2021/07/08 08:57:18;;;;;;;4.60;2.47;;;25.50;99.90;;;;;;4974901;28;20460;-76
2021/07/08 08:59:45;;;;;;;1.97;1.60;;;25.50;99.90;;;;;;4974754;28;20445;-76
2021/07/08 09:02:14;;;;;;;5.03;2.20;;;25.60;99.90;;;;;;4974659;28;20446;-75
2021/07/08 09:04:42;;;;;;;2.00;1.40;;;25.60;99.90;;;;;;4975276;28;20520;-76
2021/07/08 09:07:26;;;;;;;2.70;1.37;;;25.60;99.90;;;;;;4975201;28;20453;-76
2021/07/08 09:09:54;;;;;;;2.83;1.90;;;25.70;99.90;;;;;;4975010;28;20780;-76
2021/07/08 09:12:24;;;;;;;1.70;1.23;;;25.70;99.90;;;;;;4974229;28;20798;-75
2021/07/08 09:14:51;;;;;;;2.03;1.57;;;25.70;99.90;;;;;;4973933;28;20524;-75
2021/07/08 09:17:19;;;;;;;2.33;1.50;;;25.70;99.90;;;;;;4972044;28;20476;-76
2021/07/08 09:19:49;;;;;;;2.00;1.50;;;25.70;99.90;;;;;;4974133;28;20452;-75
2021/07/08 09:22:28;;;;;;;3.07;1.50;;;25.80;99.90;;;;;;4974804;28;20464;-76
2021/07/08 09:24:55;;;;;;;2.33;1.37;;;25.80;99.90;;;;;;4974275;28;20499;-76
2021/07/08 09:27:26;;;;;;;3.53;2.17;;;25.80;99.90;;;;;;4973293;28;20512;-75
2021/07/08 09:29:54;;;;;;;1.87;1.50;;;25.80;99.90;;;;;;4972879;28;20523;-76
2021/07/08 09:32:22;;;;;;;2.50;1.90;;;25.90;99.90;;;;;;4972977;28;20542;-75
2021/07/08 09:34:51;;;;;;;2.50;1.50;;;25.80;99.90;;;;;;4972643;28;20449;-76
2021/07/08 09:37:20;;;;;;;1.67;1.57;;;25.90;99.90;;;;;;4973951;28;20831;-76
2021/07/08 09:39:49;;;;;;;2.63;1.40;;;25.90;99.90;;;;;;4973156;28;20453;-76
2021/07/08 09:42:18;;;;;;;1.70;1.50;;;25.90;99.90;;;;;;4973698;28;20506;-76
2021/07/08 09:44:45;;;;;;;1.60;1.50;;;25.90;99.90;;;;;;4971630;28;20945;-76
2021/07/08 09:47:24;;;;;;;1.93;1.70;;;26.10;99.90;;;;;;4972218;28;20453;-76
2021/07/08 09:49:52;;;;;;;2.13;1.50;;;26.00;99.90;;;;;;4973462;28;20564;-76
2021/07/08 09:52:19;;;;;;;1.80;1.67;;;26.10;99.90;;;;;;4973946;28;20468;-82
2021/07/08 09:57:46;;;;;;;6.50;1.93;;;26.10;99.90;;;;;;4967675;28;20436;-75
2021/07/08 10:00:32;;;;;;;1.80;1.70;;;26.10;99.90;;;;;;4974039;28;20441;-75
2021/07/08 10:02:59;;;;;;;2.80;1.50;;;26.10;99.90;;;;;;4974343;28;20524;-82
2021/07/08 10:05:27;;;;;;;4.60;1.70;;;25.90;99.90;;;;;;4971209;28;20468;-76
2021/07/08 10:07:54;;;;;;;2.30;1.50;;;26.00;99.90;;;;;;4972467;28;20450;-76
2021/07/08 10:10:21;;;;;;;1.70;1.60;;;26.00;99.90;;;;;;4972872;28;20491;-79
2021/07/08 10:12:49;;;;;;;1.93;1.20;;;26.00;99.90;;;;;;4971693;28;20453;-78
2021/07/08 10:15:17;;;;;;;2.30;1.33;;;26.00;99.90;;;;;;4968895;28;20462;-83
2021/07/08 10:17:44;;;;;;;1.73;1.63;;;26.00;99.90;;;;;;4973384;28;20957;-86
2021/07/08 10:20:13;;;;;;;1.97;1.50;;;26.00;99.90;;;;;;4971741;28;20449;-78
2021/07/08 10:22:41;;;;;;;2.30;1.60;;;26.00;99.90;;;;;;4964164;28;20453;-79
2021/07/08 10:25:10;;;;;;;2.50;1.90;;;26.10;99.90;;;;;;4971526;28;20915;-84
2021/07/08 10:27:38;;;;;;;2.37;1.67;;;26.00;99.90;;;;;;4972081;28;20804;-80
2021/07/08 10:30:06;;;;;;;1.43;1.33;;;25.90;99.90;;;;;;4972818;28;20477;-82
2021/07/08 10:32:34;;;;;;;2.90;1.70;;;25.90;99.90;;;;;;4972762;28;20442;-82
2021/07/08 10:35:01;;;;;;;1.63;1.53;;;25.70;99.90;;;;;;4969001;28;20458;-80
2021/07/08 10:37:33;;;;;;;5.10;1.63;;;25.80;99.90;;;;;;4963414;28;20464;-79
2021/07/08 10:40:02;;;;;;;1.53;1.43;;;25.80;99.90;;;;;;4968581;28;20601;-83
2021/07/08 10:42:42;;;;;;;1.60;1.50;;;25.80;99.90;;;;;;4956535;28;20454;-84
2021/07/08 10:45:20;;;;;;;2.17;1.80;;;25.70;99.90;;;;;;4972820;28;20469;-81
2021/07/08 10:47:47;;;;;;;1.80;1.70;;;25.70;99.90;;;;;;4966866;28;20442;-79
2021/07/08 10:50:36;;;;;;;3.70;2.00;;;25.60;99.90;;;;;;4977022;28;20519;-77
2021/07/08 10:53:22;;;;;;;2.50;1.83;;;25.50;99.90;;;;;;4975408;28;20445;-79
2021/07/08 10:55:58;;;;;;;1.57;1.40;;;25.50;99.90;;;;;;4975871;28;20543;-84
2021/07/08 10:58:46;;;;;;;1.93;1.23;;;25.50;99.90;;;;;;4976417;28;20928;-80
2021/07/08 11:01:41;;;;;;;2.30;1.67;;;25.30;99.90;;;;;;4978035;28;20461;-88
2021/07/08 11:04:09;;;;;;;1.70;1.60;;;25.50;99.90;;;;;;4977510;28;20477;-80
2021/07/08 11:06:39;;;;;;;2.80;1.63;;;25.50;99.90;;;;;;4977667;28;20445;-84
2021/07/08 11:09:08;;;;;;;1.70;1.40;;;25.40;99.90;;;;;;4975976;28;20445;-77
2021/07/08 11:12:04;;;;;;;2.53;1.90;;;25.50;99.90;;;;;;4976529;28;20487;-74
2021/07/08 11:14:35;;;;;;;1.90;1.53;;;25.50;99.90;;;;;;4976554;28;20459;-75
2021/07/08 11:17:15;;;;;;;2.67;1.70;;;25.50;99.90;;;;;;4975397;28;20854;-74
2021/07/08 11:19:47;;;;;;;2.40;1.90;;;25.80;99.90;;;;;;4970196;28;20469;-75
2021/07/08 11:22:25;;;;;;;5.80;2.57;;;25.70;99.90;;;;;;4973698;28;20579;-74
2021/07/08 11:24:53;;;;;;;2.70;1.90;;;25.60;99.90;;;;;;4956029;29;20491;-74
2021/07/08 11:27:33;;;;;;;2.63;1.97;;;25.60;99.90;;;;;;4975833;28;20523;-75
2021/07/08 11:30:03;;;;;;;1.67;1.20;;;25.60;99.90;;;;;;4964082;28;20457;-75
2021/07/08 11:32:36;;;;;;;1.73;1.63;;;25.80;99.90;;;;;;4975732;28;20457;-75
2021/07/08 11:35:05;;;;;;;2.07;1.50;;;25.70;99.90;;;;;;4975301;28;20441;-74
2021/07/08 11:37:39;;;;;;;2.23;1.80;;;25.70;99.90;;;;;;4974066;28;20457;-79
2021/07/08 11:40:08;;;;;;;2.10;1.40;;;25.70;99.90;;;;;;4976135;28;20858;-77
2021/07/08 11:42:37;;;;;;;1.60;1.50;;;25.70;99.90;;;;;;4975698;28;20445;-76
2021/07/08 11:45:07;;;;;;;2.90;1.73;;;25.70;99.90;;;;;;4975913;28;20446;-75
2021/07/08 11:47:41;;;;;;;2.33;1.40;;;25.70;99.90;;;;;;4968366;28;20449;-73
2021/07/08 11:50:16;;;;;;;1.43;1.30;;;25.90;99.90;;;;;;4957500;28;21067;-74
2021/07/08 11:52:43;;;;;;;2.53;1.63;;;25.80;99.90;;;;;;4976860;28;20542;-74
2021/07/08 11:55:10;;;;;;;3.30;1.63;;;25.80;99.90;;;;;;4975915;28;20460;-74
2021/07/08 11:57:52;;;;;;;3.20;1.87;;;25.80;99.90;;;;;;4976456;28;20799;-77
2021/07/08 12:00:34;;;;;;;1.87;1.77;;;25.90;99.90;;;;;;4976551;28;20449;-76
2021/07/08 12:03:02;;;;;;;1.47;1.37;;;25.80;99.90;;;;;;4975520;28;20452;-76
2021/07/08 12:05:29;;;;;;;4.07;1.60;;;26.00;99.90;;;;;;4976380;28;20669;-75
2021/07/08 12:08:00;;;;;;;2.37;2.17;;;25.90;99.90;;;;;;4975958;28;20531;-76
2021/07/08 12:10:30;;;;;;;2.03;1.73;;;25.90;99.90;;;;;;4976314;28;20946;-74
2021/07/08 12:12:58;;;;;;;3.10;1.80;;;26.10;99.90;;;;;;4975842;28;20442;-75
2021/07/08 12:15:26;;;;;;;1.80;1.70;;;25.80;99.90;;;;;;4967690;28;20453;-74
2021/07/08 12:17:55;;;;;;;2.20;1.83;;;25.80;99.90;;;;;;4975962;28;20453;-76
2021/07/08 12:20:22;;;;;;;1.50;1.40;;;25.80;99.90;;;;;;4975013;28;20458;-76
2021/07/08 12:22:56;;;;;;;3.07;1.63;;;25.80;99.90;;;;;;4956630;29;20911;-75
2021/07/08 12:25:24;;;;;;;1.90;1.57;;;25.80;99.90;;;;;;4960959;28;20572;-76
2021/07/08 12:27:51;;;;;;;2.00;1.83;;;25.80;99.90;;;;;;4973823;28;20957;-75
2021/07/08 12:30:22;;;;;;;1.90;1.67;;;25.80;99.90;;;;;;4974309;28;20476;-75
2021/07/08 12:32:50;;;;;;;1.60;1.50;;;25.80;99.90;;;;;;4976022;28;20437;-74
2021/07/08 12:35:17;;;;;;;2.47;1.83;;;25.80;99.90;;;;;;4974412;28;20465;-75
2021/07/08 12:37:43;;;;;;;2.30;1.80;;;25.90;99.90;;;;;;4975327;28;20441;-76
2021/07/08 12:40:12;;;;;;;2.00;1.80;;;25.90;99.90;;;;;;4975194;28;20453;-75
2021/07/08 12:42:42;;;;;;;2.47;1.85;;;25.90;99.90;;;;;;4960257;28;20528;-76
2021/07/08 12:45:10;;;;;;;3.83;1.80;;;25.90;99.90;;;;;;4957550;28;20560;-76
2021/07/08 12:47:41;;;;;;;1.60;1.50;;;25.90;99.90;;;;;;4959882;28;20466;-76
2021/07/08 12:50:09;;;;;;;2.53;1.70;;;26.00;99.90;;;;;;4963961;28;20457;-79
2021/07/08 12:52:38;;;;;;;1.70;1.43;;;25.90;99.90;;;;;;4974994;28;20485;-74
2021/07/08 12:55:06;;;;;;;2.20;1.83;;;25.90;99.90;;;;;;4974957;28;20517;-74
2021/07/08 12:57:33;;;;;;;1.43;1.27;;;25.90;99.90;;;;;;4961571;28;20462;-76
2021/07/08 13:00:02;;;;;;;1.83;1.63;;;25.90;99.90;;;;;;4956114;28;20458;-74